Terminal Aerodrome Forecast
Issued by NWS Chicago, IL

Home | Current Version | Previous Version | Text Only | Print | Product List | Glossary Off
Versions: 1 2 3 4 5 6 7 8 9 10 11 12 13 14 15 16 17 18 19 20 21 22 23 24 25 26 27 28 29 30

082
FTUS43 KLOT 211255 AAA
TAFRFD
TAF AMD
KRFD 211255Z 2113/2212 VRB05KT 5SM BR SCT004 BKN090 OVC250
      TEMPO 2113/2114 2SM BR BKN004
     FM211400 17007KT P6SM SCT040 BKN100
     FM211700 18008KT P6SM VCSH SCT035 BKN200
     FM212000 14009KT P6SM SCT050 BKN150
     FM220500 18006KT P6SM BKN100
      TEMPO 2208/2212 3SM TSRA BKN035CB=

USA.gov is the U.S. government's official web portal to all federal, state and local government web resources and services.